Time;durP1;ratioP1;P1;durP2;ratioP2;P2;SDS_P1;SDS_P2;PMS_P1;PMS_P2;Temp;Humidity;BMP_temperature;BMP_pressure;BME280_temperature;BME280_humidity;BME280_pressure;Samples;Min_cycle;Max_cycle;Signal;HPM_P1;HPM_P2
2022/05/29 00:00:13;;;;;;;1.25;1.00;;;15.50;70.50;;;;;;4953619;29;20078;-74
2022/05/29 00:02:40;;;;;;;1.58;0.80;;;15.60;70.50;;;;;;4953539;29;20027;-73
2022/05/29 00:05:08;;;;;;;0.57;0.57;;;15.60;70.70;;;;;;4953115;29;20028;-73
2022/05/29 00:07:34;;;;;;;1.40;0.70;;;15.60;70.80;;;;;;4953703;29;20023;-73
2022/05/29 00:10:08;;;;;;;2.15;1.10;;;15.50;70.60;;;;;;4953273;29;20127;-73
2022/05/29 00:12:33;;;;;;;1.30;1.00;;;15.60;70.90;;;;;;4953636;28;20523;-73
2022/05/29 00:14:59;;;;;;;1.42;0.93;;;15.50;71.10;;;;;;4957386;29;20118;-74
2022/05/29 00:17:25;;;;;;;0.98;0.65;;;15.50;71.70;;;;;;4957514;29;20023;-72
2022/05/29 00:19:51;;;;;;;3.60;1.00;;;15.50;71.90;;;;;;4957691;29;20114;-73
2022/05/29 00:22:22;;;;;;;2.70;1.10;;;15.50;72.20;;;;;;4956913;29;20038;-73
2022/05/29 00:24:49;;;;;;;1.50;1.05;;;15.40;72.30;;;;;;4957627;29;20114;-72
2022/05/29 00:27:18;;;;;;;1.90;0.90;;;15.40;72.70;;;;;;4956806;29;20184;-72
2022/05/29 00:29:44;;;;;;;3.17;0.90;;;15.40;73.10;;;;;;4957463;29;20034;-73
2022/05/29 00:32:10;;;;;;;2.25;0.85;;;15.40;73.00;;;;;;4956972;29;20031;-73
2022/05/29 00:34:36;;;;;;;0.82;0.73;;;15.40;72.80;;;;;;4957124;29;20482;-73
2022/05/29 00:37:04;;;;;;;2.72;0.85;;;15.30;72.50;;;;;;4956988;28;20449;-74
2022/05/29 00:39:31;;;;;;;0.80;0.70;;;15.30;72.60;;;;;;4957359;28;20465;-73
2022/05/29 00:41:57;;;;;;;1.30;0.73;;;15.30;72.80;;;;;;4956751;28;20079;-75
2022/05/29 00:44:28;;;;;;;2.35;0.98;;;15.20;72.50;;;;;;4956386;28;20079;-73
2022/05/29 00:47:00;;;;;;;0.77;0.65;;;15.20;72.30;;;;;;4957018;28;20032;-72
2022/05/29 00:49:33;;;;;;;1.95;0.80;;;15.10;72.50;;;;;;4971628;28;20384;-72
2022/05/29 00:52:12;;;;;;;1.80;0.70;;;15.10;72.20;;;;;;4956606;28;20170;-73
2022/05/29 00:54:58;;;;;;;1.08;0.85;;;15.00;72.40;;;;;;4957137;28;20130;-73
2022/05/29 00:57:33;;;;;;;1.40;0.80;;;14.90;71.40;;;;;;4971576;28;20319;-73
2022/05/29 01:00:14;;;;;;;1.25;0.60;;;14.80;71.60;;;;;;4956261;28;20046;-75
2022/05/29 01:02:41;;;;;;;1.75;0.73;;;14.70;72.00;;;;;;4957121;28;20050;-73
2022/05/29 01:05:09;;;;;;;0.95;0.80;;;14.60;72.60;;;;;;4956277;28;20042;-74
2022/05/29 01:07:36;;;;;;;1.10;0.70;;;14.60;72.70;;;;;;4971385;28;20094;-73
2022/05/29 01:10:06;;;;;;;0.98;0.70;;;14.50;72.80;;;;;;4956227;28;20097;-74
2022/05/29 01:12:41;;;;;;;1.25;0.82;;;14.50;73.30;;;;;;4956432;28;20492;-73
2022/05/29 01:15:13;;;;;;;0.82;0.70;;;14.40;74.60;;;;;;4956082;29;20114;-73
2022/05/29 01:17:42;;;;;;;1.15;0.80;;;14.30;74.80;;;;;;4955502;29;20113;-73
2022/05/29 01:20:45;;;;;;;0.70;0.60;;;14.30;75.70;;;;;;4954899;29;20114;-74
2022/05/29 01:23:50;;;;;;;1.70;0.70;;;14.20;76.60;;;;;;4956065;29;20106;-74
2022/05/29 01:26:28;;;;;;;3.80;0.70;;;14.20;77.10;;;;;;4955075;29;20024;-73
2022/05/29 01:29:05;;;;;;;0.57;0.57;;;14.10;77.30;;;;;;4956320;29;20028;-74
2022/05/29 01:31:47;;;;;;;0.63;0.55;;;14.00;78.00;;;;;;4955176;29;20085;-74
2022/05/29 01:34:12;;;;;;;0.60;0.60;;;14.00;78.90;;;;;;4956151;28;20039;-74
2022/05/29 01:36:50;;;;;;;0.88;0.88;;;14.00;79.20;;;;;;4955993;29;20031;-74
2022/05/29 01:39:27;;;;;;;0.80;0.70;;;14.00;79.50;;;;;;4955976;29;20027;-73
2022/05/29 01:41:57;;;;;;;0.70;0.50;;;14.00;79.40;;;;;;4956265;28;20041;-74
2022/05/29 01:45:01;;;;;;;1.30;0.60;;;14.00;79.30;;;;;;4955734;28;20114;-73
2022/05/29 01:47:44;;;;;;;4.47;1.15;;;14.00;79.40;;;;;;4955779;28;20491;-73
2022/05/29 01:50:23;;;;;;;0.82;0.82;;;14.00;79.00;;;;;;4955471;28;20479;-74
2022/05/29 01:53:06;;;;;;;2.03;1.00;;;13.90;79.60;;;;;;4970828;28;20027;-74
2022/05/29 01:55:40;;;;;;;0.93;0.80;;;13.90;80.40;;;;;;4955236;28;20431;-74
2022/05/29 01:58:13;;;;;;;1.20;0.98;;;13.80;80.70;;;;;;4955583;29;20027;-74
2022/05/29 02:00:40;;;;;;;0.95;0.80;;;13.80;80.70;;;;;;4955942;29;20027;-73
2022/05/29 02:03:19;;;;;;;0.60;0.60;;;13.80;81.10;;;;;;4955077;29;20365;-73
2022/05/29 02:05:56;;;;;;;1.63;0.70;;;13.70;80.50;;;;;;4955975;29;20372;-74
2022/05/29 02:08:29;;;;;;;0.52;0.50;;;13.70;80.70;;;;;;4955314;29;20031;-71
2022/05/29 02:11:07;;;;;;;0.95;0.57;;;13.60;80.70;;;;;;4955488;29;20103;-72
2022/05/29 02:13:45;;;;;;;1.92;0.88;;;13.60;80.80;;;;;;4955914;29;20071;-73
2022/05/29 02:16:33;;;;;;;1.08;1.00;;;13.60;80.40;;;;;;4955225;29;20024;-74
2022/05/29 02:19:06;;;;;;;1.23;0.57;;;13.60;80.40;;;;;;4955468;29;20049;-73
2022/05/29 02:21:52;;;;;;;0.82;0.80;;;13.70;80.30;;;;;;4938287;29;20027;-72
2022/05/29 02:24:27;;;;;;;2.22;1.27;;;13.70;79.60;;;;;;4953973;29;20440;-73
2022/05/29 02:27:22;;;;;;;0.60;0.60;;;13.70;79.80;;;;;;4955126;29;20027;-72
2022/05/29 02:29:48;;;;;;;0.50;0.50;;;13.70;79.80;;;;;;4938750;29;20132;-73
2022/05/29 02:32:22;;;;;;;1.50;0.50;;;13.70;79.70;;;;;;4953567;29;20126;-73
2022/05/29 02:35:08;;;;;;;1.05;0.65;;;13.70;79.20;;;;;;4955300;29;20031;-73
2022/05/29 02:37:50;;;;;;;2.10;0.80;;;13.70;79.30;;;;;;4954339;28;20135;-73
2022/05/29 02:40:21;;;;;;;0.82;0.70;;;13.70;79.40;;;;;;4937466;29;20115;-73
2022/05/29 02:43:10;;;;;;;0.65;0.47;;;13.70;78.90;;;;;;4954822;29;20027;-73
2022/05/29 02:45:56;;;;;;;2.85;1.55;;;13.70;78.40;;;;;;4878789;29;20131;-73
2022/05/29 02:48:56;;;;;;;1.20;1.00;;;13.70;78.00;;;;;;4916525;29;20150;-73
2022/05/29 02:51:43;;;;;;;0.60;0.60;;;13.70;78.20;;;;;;4903356;29;20040;-74
2022/05/29 02:54:19;;;;;;;0.45;0.45;;;13.70;78.00;;;;;;4916492;29;20032;-74
2022/05/29 02:56:45;;;;;;;0.95;0.60;;;13.60;77.90;;;;;;4916962;29;20024;-74
2022/05/29 02:59:11;;;;;;;0.82;0.57;;;13.60;78.10;;;;;;4916345;29;20031;-73
2022/05/29 03:02:05;;;;;;;0.60;0.60;;;13.60;77.90;;;;;;4916734;29;20035;-72
2022/05/29 03:04:44;;;;;;;0.50;0.50;;;13.60;77.80;;;;;;4916267;29;20036;-73
2022/05/29 03:07:39;;;;;;;1.95;0.90;;;13.60;77.90;;;;;;4916502;29;20083;-73
2022/05/29 03:10:27;;;;;;;0.95;0.50;;;13.60;77.90;;;;;;4916648;29;20484;-74
2022/05/29 03:13:01;;;;;;;2.25;0.73;;;13.60;78.10;;;;;;4916496;29;20137;-73
2022/05/29 03:15:37;;;;;;;0.80;0.60;;;13.50;77.90;;;;;;4915963;29;20046;-72
2022/05/29 03:18:09;;;;;;;0.95;0.60;;;13.60;78.10;;;;;;4916697;29;20504;-73
2022/05/29 03:20:49;;;;;;;2.47;0.70;;;13.60;78.60;;;;;;4915546;29;20028;-74
2022/05/29 03:23:27;;;;;;;0.47;0.47;;;13.60;78.60;;;;;;4915781;29;20040;-74
2022/05/29 03:25:58;;;;;;;0.50;0.50;;;13.60;78.60;;;;;;4915813;29;20257;-73
2022/05/29 03:28:46;;;;;;;1.38;0.63;;;13.60;78.60;;;;;;4915791;29;20060;-73
2022/05/29 03:31:17;;;;;;;1.55;0.55;;;13.60;78.60;;;;;;4914192;29;20091;-76
2022/05/29 03:33:46;;;;;;;1.10;0.60;;;13.60;78.80;;;;;;4915750;29;20503;-74
2022/05/29 03:36:15;;;;;;;0.70;0.60;;;13.60;78.50;;;;;;4915707;29;20036;-76
2022/05/29 03:38:41;;;;;;;1.25;0.70;;;13.70;78.90;;;;;;4915945;29;20147;-74
2022/05/29 03:41:39;;;;;;;1.25;0.90;;;13.60;79.20;;;;;;4915606;29;20024;-73
2022/05/29 03:44:05;;;;;;;1.02;0.77;;;13.60;79.60;;;;;;4932263;29;20138;-74
2022/05/29 03:46:31;;;;;;;1.30;0.77;;;13.60;79.60;;;;;;4953399;29;20433;-73
2022/05/29 03:48:57;;;;;;;0.73;0.60;;;13.60;79.90;;;;;;4953407;29;20023;-73
2022/05/29 03:51:23;;;;;;;1.27;0.88;;;13.60;80.00;;;;;;4952979;29;20035;-74
2022/05/29 03:53:48;;;;;;;1.00;0.70;;;13.60;80.80;;;;;;4954080;29;20502;-73
2022/05/29 03:56:14;;;;;;;1.77;0.80;;;13.70;81.30;;;;;;4953668;29;20039;-74
2022/05/29 03:58:39;;;;;;;1.30;0.85;;;13.70;81.70;;;;;;4937037;29;20031;-73
2022/05/29 04:01:05;;;;;;;1.33;1.17;;;13.70;81.90;;;;;;4954191;29;20102;-73
2022/05/29 04:03:31;;;;;;;1.00;0.70;;;13.70;81.90;;;;;;4953418;29;20046;-73
2022/05/29 04:05:56;;;;;;;1.17;0.82;;;13.80;80.90;;;;;;4953903;29;20035;-73
2022/05/29 04:13:51;;;;;;;1.02;0.70;;;13.70;77.60;;;;;;4953739;29;20038;-73
2022/05/29 04:16:17;;;;;;;1.00;0.90;;;13.80;77.30;;;;;;4953246;29;20395;-74
2022/05/29 04:18:43;;;;;;;1.05;0.68;;;13.80;75.80;;;;;;4936753;29;20033;-73
2022/05/29 04:21:09;;;;;;;1.45;0.70;;;13.80;75.20;;;;;;4953949;29;20023;-73
2022/05/29 04:23:35;;;;;;;1.10;0.70;;;13.80;74.70;;;;;;4953352;29;20063;-73
2022/05/29 04:26:00;;;;;;;0.73;0.73;;;13.80;74.60;;;;;;4961551;28;20058;-72
2022/05/29 04:28:26;;;;;;;1.10;0.90;;;13.80;74.70;;;;;;4957460;28;20035;-73
2022/05/29 04:30:52;;;;;;;2.78;1.02;;;13.90;75.70;;;;;;4962853;28;20019;-73
2022/05/29 04:33:17;;;;;;;0.80;0.70;;;13.90;77.40;;;;;;4961449;28;20036;-76
2022/05/29 04:35:48;;;;;;;2.80;1.20;;;13.80;77.30;;;;;;4963738;28;20030;-74
2022/05/29 04:38:15;;;;;;;3.70;0.80;;;13.90;77.10;;;;;;4955543;28;20421;-73
2022/05/29 04:40:43;;;;;;;1.20;0.73;;;13.80;74.70;;;;;;4952748;29;20467;-74
2022/05/29 04:43:10;;;;;;;1.15;0.80;;;13.70;72.90;;;;;;4953271;29;20118;-74
2022/05/29 04:45:39;;;;;;;1.98;0.80;;;13.70;73.10;;;;;;4952829;29;20074;-73
2022/05/29 04:48:05;;;;;;;0.75;0.65;;;13.70;72.30;;;;;;4952889;29;20468;-73
2022/05/29 04:50:31;;;;;;;1.30;0.90;;;13.70;73.10;;;;;;4935806;29;20106;-74
2022/05/29 04:52:57;;;;;;;2.17;0.80;;;13.70;72.90;;;;;;4953612;29;20059;-72
2022/05/29 04:55:23;;;;;;;4.05;0.95;;;13.70;72.90;;;;;;4935778;29;20097;-73
2022/05/29 04:57:48;;;;;;;1.20;0.70;;;13.70;73.20;;;;;;4953573;29;20031;-72
2022/05/29 05:00:15;;;;;;;0.90;0.70;;;13.70;71.40;;;;;;4955740;28;20396;-73
2022/05/29 05:02:41;;;;;;;1.17;0.57;;;13.80;71.30;;;;;;4956346;29;20031;-74
2022/05/29 05:05:08;;;;;;;1.25;1.00;;;13.80;69.80;;;;;;4956853;29;20146;-73
2022/05/29 05:07:35;;;;;;;1.27;0.60;;;13.90;69.70;;;;;;4956360;29;20031;-73
2022/05/29 05:10:02;;;;;;;0.90;0.60;;;13.90;70.00;;;;;;4956553;29;20035;-73
2022/05/29 05:12:28;;;;;;;0.85;0.77;;;14.00;69.80;;;;;;4956100;29;20452;-73
2022/05/29 05:14:53;;;;;;;0.73;0.73;;;14.00;69.50;;;;;;4956610;29;20031;-73
2022/05/29 05:17:19;;;;;;;1.05;0.57;;;14.10;69.10;;;;;;4956430;29;20144;-74
2022/05/29 05:19:45;;;;;;;0.85;0.80;;;14.10;68.40;;;;;;4955942;29;20030;-74
2022/05/29 05:22:10;;;;;;;5.50;0.82;;;14.20;68.10;;;;;;4956418;29;20031;-74
2022/05/29 05:24:38;;;;;;;0.80;0.80;;;14.40;68.20;;;;;;4938816;29;20031;-74
2022/05/29 05:27:05;;;;;;;1.08;0.75;;;14.90;67.30;;;;;;4956490;29;20090;-73
2022/05/29 05:29:31;;;;;;;0.98;0.70;;;15.30;66.50;;;;;;4955969;29;20090;-73
2022/05/29 05:31:57;;;;;;;1.08;0.73;;;17.70;61.20;;;;;;4956072;29;20028;-74
2022/05/29 05:34:22;;;;;;;0.70;0.60;;;19.60;55.00;;;;;;4955884;29;20380;-75
2022/05/29 05:36:48;;;;;;;1.48;0.63;;;21.20;50.60;;;;;;4956259;29;20027;-74
2022/05/29 05:39:14;;;;;;;1.17;0.80;;;22.50;46.70;;;;;;4956015;29;20372;-74
2022/05/29 05:41:40;;;;;;;0.95;0.73;;;23.50;43.40;;;;;;4957796;28;20043;-74
2022/05/29 05:44:06;;;;;;;1.10;0.60;;;24.40;40.70;;;;;;4973145;28;20395;-75
2022/05/29 05:46:32;;;;;;;0.60;0.40;;;25.30;38.90;;;;;;4968407;28;20023;-75
2022/05/29 05:48:58;;;;;;;2.00;1.08;;;26.10;36.90;;;;;;4948348;29;20471;-75
2022/05/29 05:51:24;;;;;;;1.70;0.73;;;27.00;35.90;;;;;;4936281;29;20413;-76
2022/05/29 05:53:49;;;;;;;1.25;0.60;;;28.00;34.20;;;;;;4936742;29;20031;-74
2022/05/29 05:56:17;;;;;;;0.80;0.47;;;28.70;32.90;;;;;;4936896;29;20098;-75
2022/05/29 05:58:43;;;;;;;0.60;0.55;;;29.50;31.80;;;;;;4943747;28;20034;-74
2022/05/29 06:01:12;;;;;;;1.20;0.60;;;30.00;30.00;;;;;;4956035;29;20035;-74
2022/05/29 06:03:39;;;;;;;0.50;0.50;;;30.80;29.20;;;;;;4955385;29;20036;-74
2022/05/29 06:06:05;;;;;;;0.50;0.50;;;31.00;29.10;;;;;;4951307;29;20516;-74
2022/05/29 06:08:31;;;;;;;0.75;0.50;;;31.60;28.30;;;;;;4954653;29;20027;-74
2022/05/29 06:10:57;;;;;;;0.60;0.45;;;31.90;28.10;;;;;;4954357;28;20436;-75
2022/05/29 06:13:23;;;;;;;0.52;0.50;;;32.00;27.70;;;;;;4954647;29;20058;-75
2022/05/29 06:15:49;;;;;;;0.70;0.60;;;32.00;27.60;;;;;;4954852;29;20433;-74
2022/05/29 06:18:17;;;;;;;1.45;0.80;;;32.00;27.80;;;;;;4952737;29;20037;-74
2022/05/29 06:20:43;;;;;;;0.68;0.40;;;32.30;27.60;;;;;;4940282;29;20024;-75
2022/05/29 06:23:11;;;;;;;1.13;0.63;;;32.50;26.70;;;;;;4945811;29;20388;-75
2022/05/29 06:25:39;;;;;;;0.40;0.40;;;31.00;27.10;;;;;;4955004;29;20526;-75
2022/05/29 06:28:07;;;;;;;1.58;0.85;;;29.40;28.70;;;;;;4954288;29;20113;-75
2022/05/29 06:30:33;;;;;;;2.13;0.60;;;28.10;29.60;;;;;;4954429;29;20031;-74
2022/05/29 06:32:59;;;;;;;1.02;0.60;;;27.10;30.20;;;;;;4954707;29;20109;-73
2022/05/29 06:35:25;;;;;;;1.65;0.55;;;26.20;31.10;;;;;;4954445;29;20107;-75
2022/05/29 06:37:50;;;;;;;3.97;0.82;;;25.40;33.30;;;;;;4954875;29;20106;-74
2022/05/29 06:40:16;;;;;;;0.63;0.40;;;25.00;33.60;;;;;;4954600;29;20031;-73
2022/05/29 06:42:42;;;;;;;2.83;0.90;;;24.40;33.30;;;;;;4954465;29;20035;-74
2022/05/29 06:45:09;;;;;;;0.98;0.70;;;23.70;34.20;;;;;;4954744;29;20054;-74
2022/05/29 06:47:38;;;;;;;0.55;0.50;;;23.00;35.70;;;;;;4953702;29;20467;-74
2022/05/29 06:50:05;;;;;;;0.77;0.50;;;22.40;37.50;;;;;;4954305;29;20023;-74
2022/05/29 06:52:31;;;;;;;3.60;0.82;;;22.00;38.50;;;;;;4953999;29;20027;-74
2022/05/29 06:54:58;;;;;;;1.65;1.00;;;21.50;39.10;;;;;;4954420;29;20121;-75
2022/05/29 06:57:36;;;;;;;1.58;0.98;;;21.10;40.70;;;;;;4954241;29;20031;-74
2022/05/29 07:08:30;;;;;;;1.77;0.98;;;19.90;43.90;;;;;;4950729;29;20049;-75
2022/05/29 07:11:00;;;;;;;1.92;0.90;;;19.70;44.60;;;;;;4954557;29;20062;-74
2022/05/29 07:13:27;;;;;;;2.50;1.10;;;19.60;45.40;;;;;;4953445;29;20023;-76
2022/05/29 07:15:53;;;;;;;2.88;1.25;;;19.50;45.60;;;;;;4953773;29;20129;-75
2022/05/29 07:18:18;;;;;;;1.50;0.80;;;19.50;45.70;;;;;;4953371;29;20110;-75
2022/05/29 07:20:44;;;;;;;1.65;0.90;;;19.30;45.80;;;;;;4953256;29;20559;-76
2022/05/29 07:23:10;;;;;;;1.63;0.95;;;19.20;46.00;;;;;;4952778;28;20035;-75
2022/05/29 07:25:35;;;;;;;3.70;1.50;;;19.20;46.90;;;;;;4937162;29;20102;-74
2022/05/29 07:28:01;;;;;;;1.17;0.90;;;19.20;45.60;;;;;;4953359;29;20346;-74
2022/05/29 07:30:27;;;;;;;3.95;1.20;;;19.10;45.40;;;;;;4953337;29;20130;-75
2022/05/29 07:32:52;;;;;;;2.25;1.48;;;19.00;46.20;;;;;;4953192;29;20031;-74
2022/05/29 07:35:18;;;;;;;2.20;0.70;;;19.10;46.30;;;;;;4953642;29;20090;-74
2022/05/29 07:37:44;;;;;;;0.55;0.55;;;19.00;44.40;;;;;;4953057;29;20449;-76
2022/05/29 07:40:11;;;;;;;2.75;0.63;;;19.00;44.80;;;;;;4954017;29;20031;-75
2022/05/29 07:45:20;;;;;;;1.60;1.13;;;19.40;44.40;;;;;;4954194;29;20114;-75
2022/05/29 07:47:46;;;;;;;2.60;1.02;;;19.70;43.60;;;;;;4953225;29;20447;-76
2022/05/29 07:50:15;;;;;;;2.67;0.47;;;19.90;43.20;;;;;;4953281;29;20459;-74
2022/05/29 07:52:41;;;;;;;0.68;0.50;;;19.90;39.40;;;;;;4952164;29;20475;-75
2022/05/29 07:55:08;;;;;;;0.85;0.40;;;19.80;39.20;;;;;;4952813;29;20034;-75
2022/05/29 07:57:34;;;;;;;0.95;0.60;;;19.80;39.30;;;;;;4952135;29;20057;-75
2022/05/29 07:59:59;;;;;;;0.60;0.60;;;19.70;39.50;;;;;;4952818;29;20059;-75
2022/05/29 08:02:25;;;;;;;0.60;0.60;;;19.70;39.40;;;;;;4952698;29;20059;-75
2022/05/29 08:04:51;;;;;;;0.73;0.60;;;19.50;38.90;;;;;;4952397;29;20034;-75
2022/05/29 08:07:18;;;;;;;0.47;0.47;;;19.20;39.70;;;;;;4952634;29;20027;-75
2022/05/29 08:09:44;;;;;;;0.52;0.50;;;19.00;40.60;;;;;;4949481;29;20027;-75
2022/05/29 08:12:10;;;;;;;0.40;0.40;;;18.90;41.50;;;;;;4942134;29;20158;-74
2022/05/29 08:14:36;;;;;;;1.63;0.60;;;18.70;42.20;;;;;;4941810;29;20031;-75
2022/05/29 08:17:02;;;;;;;1.48;0.70;;;18.60;42.30;;;;;;4935092;28;20453;-74
2022/05/29 08:19:27;;;;;;;0.60;0.60;;;18.50;42.60;;;;;;4961154;28;20087;-74
2022/05/29 08:21:53;;;;;;;1.10;0.60;;;18.50;42.40;;;;;;4952048;28;20434;-74
2022/05/29 08:32:34;;;;;;;3.13;0.73;;;18.00;40.30;;;;;;4952886;29;20035;-74
2022/05/29 08:35:00;;;;;;;1.17;0.50;;;17.90;41.30;;;;;;4955106;28;20392;-74
2022/05/29 08:37:26;;;;;;;0.77;0.50;;;17.90;42.20;;;;;;4956565;29;20034;-75
2022/05/29 08:39:51;;;;;;;0.70;0.65;;;17.80;42.40;;;;;;4956785;29;20035;-74
2022/05/29 08:42:18;;;;;;;6.97;1.10;;;17.80;42.90;;;;;;4956788;29;20492;-74
2022/05/29 08:44:49;;;;;;;1.27;0.50;;;17.70;43.20;;;;;;4955966;29;20092;-74
2022/05/29 08:47:20;;;;;;;0.50;0.50;;;17.60;43.20;;;;;;4956482;29;20056;-74
2022/05/29 08:49:48;;;;;;;1.95;0.55;;;17.50;43.10;;;;;;4956186;29;20385;-74
2022/05/29 08:52:43;;;;;;;0.75;0.40;;;17.50;42.90;;;;;;4956582;29;20031;-74
2022/05/29 08:55:12;;;;;;;0.50;0.47;;;17.40;43.40;;;;;;4958320;28;20034;-74
2022/05/29 08:57:46;;;;;;;1.48;0.82;;;17.40;43.00;;;;;;4958091;28;20026;-75
2022/05/29 09:00:49;;;;;;;0.50;0.50;;;17.40;42.70;;;;;;4974896;28;20031;-74
2022/05/29 09:03:44;;;;;;;3.50;0.55;;;17.40;43.00;;;;;;4967460;28;20030;-74
2022/05/29 09:06:33;;;;;;;0.90;0.47;;;17.50;42.90;;;;;;4956468;29;20026;-73
2022/05/29 09:09:08;;;;;;;1.35;0.68;;;17.50;42.80;;;;;;4956058;29;20059;-74
2022/05/29 09:11:52;;;;;;;0.63;0.57;;;17.60;43.00;;;;;;4939199;29;20027;-74
2022/05/29 09:14:23;;;;;;;1.10;0.47;;;17.60;43.40;;;;;;4956398;29;20174;-74
2022/05/29 09:17:08;;;;;;;1.10;0.60;;;17.60;43.10;;;;;;4955978;29;20039;-74
2022/05/29 09:19:42;;;;;;;1.33;0.75;;;17.60;43.00;;;;;;4956495;29;20024;-74
2022/05/29 09:22:29;;;;;;;0.50;0.50;;;17.60;44.20;;;;;;4956374;29;20062;-74
2022/05/29 09:25:04;;;;;;;2.63;0.50;;;17.50;43.30;;;;;;4955849;29;20217;-74
2022/05/29 09:27:31;;;;;;;0.57;0.55;;;17.50;43.60;;;;;;4956424;29;20077;-74
2022/05/29 09:29:57;;;;;;;3.33;0.70;;;17.50;43.70;;;;;;4955782;29;20023;-73
2022/05/29 09:32:34;;;;;;;1.10;0.63;;;17.50;43.90;;;;;;4956104;29;20023;-73
2022/05/29 09:35:21;;;;;;;1.65;0.77;;;17.60;44.30;;;;;;4955747;29;20023;-73
2022/05/29 09:37:53;;;;;;;0.32;0.32;;;17.60;44.20;;;;;;4954629;29;20023;-73
2022/05/29 09:40:25;;;;;;;1.20;0.60;;;17.60;44.00;;;;;;4956263;29;20031;-72
2022/05/29 09:42:53;;;;;;;0.30;0.30;;;17.60;43.70;;;;;;4955752;29;20042;-75
2022/05/29 09:45:32;;;;;;;1.00;0.68;;;17.60;44.50;;;;;;4972795;28;20054;-73
2022/05/29 09:50:51;;;;;;;1.42;0.70;;;17.70;43.70;;;;;;4955387;29;20114;-73
2022/05/29 09:53:25;;;;;;;0.65;0.50;;;17.80;43.80;;;;;;4955863;29;20033;-73
2022/05/29 09:56:03;;;;;;;1.95;0.52;;;17.80;43.40;;;;;;4955355;29;20031;-73
2022/05/29 09:58:44;;;;;;;3.40;0.73;;;17.70;43.40;;;;;;4956253;29;20151;-74
2022/05/29 10:01:10;;;;;;;3.50;0.90;;;17.70;43.40;;;;;;4955101;29;20027;-74
2022/05/29 10:03:50;;;;;;;0.40;0.40;;;17.70;43.80;;;;;;4955297;29;20504;-73
2022/05/29 10:06:22;;;;;;;1.58;0.50;;;17.60;43.10;;;;;;4955487;29;20070;-73
2022/05/29 10:08:49;;;;;;;2.30;0.50;;;17.50;43.50;;;;;;4955222;29;20092;-74
2022/05/29 10:11:31;;;;;;;1.02;0.65;;;17.50;43.60;;;;;;4955515;29;20031;-73
2022/05/29 10:14:00;;;;;;;0.55;0.47;;;17.40;44.30;;;;;;4955203;29;20066;-73
2022/05/29 10:16:39;;;;;;;2.05;0.50;;;17.40;44.50;;;;;;4955483;29;20070;-73
2022/05/29 10:19:11;;;;;;;1.40;0.57;;;17.40;44.40;;;;;;4955237;29;20050;-73
2022/05/29 10:21:45;;;;;;;0.73;0.50;;;17.30;44.50;;;;;;4955156;29;20024;-72
2022/05/29 10:24:21;;;;;;;0.40;0.35;;;17.30;45.00;;;;;;4954640;29;20070;-72
2022/05/29 10:26:59;;;;;;;1.30;0.63;;;17.30;45.50;;;;;;4955182;29;20115;-73
2022/05/29 10:29:37;;;;;;;0.93;0.60;;;17.20;45.40;;;;;;4954638;29;20115;-73
2022/05/29 10:32:09;;;;;;;1.50;0.70;;;17.30;45.80;;;;;;4954552;28;20035;-73
2022/05/29 10:34:40;;;;;;;1.73;0.75;;;17.30;46.60;;;;;;4954514;28;20027;-73
2022/05/29 10:37:35;;;;;;;0.95;0.52;;;17.30;47.10;;;;;;4954354;28;20428;-73
2022/05/29 10:40:29;;;;;;;0.60;0.60;;;17.30;47.50;;;;;;4963314;28;20126;-73
2022/05/29 10:43:00;;;;;;;1.85;0.70;;;17.30;47.20;;;;;;4954203;28;20094;-74
2022/05/29 10:45:47;;;;;;;0.50;0.47;;;17.40;47.60;;;;;;4954849;28;20117;-74
2022/05/29 10:48:34;;;;;;;1.83;0.82;;;17.50;47.30;;;;;;4954285;29;20035;-74
2022/05/29 10:51:24;;;;;;;0.45;0.40;;;17.50;47.30;;;;;;4954040;29;20417;-74
2022/05/29 10:54:09;;;;;;;0.40;0.40;;;17.60;46.60;;;;;;4954288;29;20094;-74
2022/05/29 10:56:40;;;;;;;1.10;0.50;;;17.60;45.60;;;;;;4954674;28;20099;-73
2022/05/29 10:59:44;;;;;;;0.40;0.40;;;17.60;45.50;;;;;;4952666;29;20030;-74
2022/05/29 11:05:39;;;;;;;1.15;0.70;;;17.70;45.00;;;;;;4959890;28;20041;-72
2022/05/29 11:08:38;;;;;;;1.08;0.47;;;17.90;44.60;;;;;;4961078;28;20024;-73
2022/05/29 11:11:23;;;;;;;1.83;0.60;;;17.90;43.90;;;;;;4960999;28;20423;-74
2022/05/29 11:13:59;;;;;;;0.65;0.40;;;17.90;42.70;;;;;;4973320;28;20070;-72
2022/05/29 11:16:54;;;;;;;1.83;0.75;;;17.90;42.90;;;;;;4973754;28;20022;-74
2022/05/29 11:19:50;;;;;;;0.93;0.77;;;17.90;42.90;;;;;;4973523;28;20027;-73
2022/05/29 11:22:24;;;;;;;0.45;0.43;;;17.90;41.50;;;;;;4973334;28;20097;-73
2022/05/29 11:25:40;;;;;;;2.50;0.47;;;17.90;41.70;;;;;;4972917;28;20129;-74
2022/05/29 11:28:24;;;;;;;0.77;0.50;;;18.00;42.10;;;;;;4970274;28;20030;-73
2022/05/29 11:30:59;;;;;;;1.67;0.63;;;18.10;42.60;;;;;;4962841;28;20365;-74
2022/05/29 11:33:35;;;;;;;0.70;0.40;;;18.10;41.80;;;;;;4961678;28;20031;-74
2022/05/29 11:36:42;;;;;;;0.73;0.50;;;18.10;42.20;;;;;;4953704;29;20100;-74
2022/05/29 11:39:29;;;;;;;0.60;0.60;;;18.20;42.10;;;;;;4915982;29;20042;-74
2022/05/29 11:42:19;;;;;;;0.40;0.40;;;18.10;42.40;;;;;;4961247;28;20033;-74
2022/05/29 11:44:54;;;;;;;1.17;0.50;;;18.00;42.90;;;;;;4963818;28;20051;-74
2022/05/29 11:53:25;;;;;;;0.73;0.52;;;18.00;43.60;;;;;;4953312;29;20046;-74
2022/05/29 11:55:54;;;;;;;0.50;0.40;;;18.10;43.80;;;;;;4953071;29;20503;-73
2022/05/29 11:58:27;;;;;;;0.30;0.30;;;18.10;43.10;;;;;;4953577;29;20126;-73
2022/05/29 12:01:06;;;;;;;1.55;0.70;;;18.20;43.20;;;;;;4953306;29;20341;-74
2022/05/29 12:03:32;;;;;;;0.40;0.40;;;18.20;43.10;;;;;;4936465;29;20039;-73
2022/05/29 12:06:41;;;;;;;0.65;0.65;;;18.20;43.20;;;;;;4953330;29;20376;-74
2022/05/29 12:09:22;;;;;;;1.05;0.57;;;18.20;42.80;;;;;;4953967;28;20118;-75
2022/05/29 12:11:53;;;;;;;0.70;0.60;;;18.10;43.20;;;;;;4957316;29;20437;-74
2022/05/29 12:14:22;;;;;;;0.77;0.50;;;18.10;43.80;;;;;;4957754;29;20031;-74
2022/05/29 12:16:53;;;;;;;1.25;0.60;;;18.10;43.40;;;;;;4957432;29;20042;-74
2022/05/29 12:19:28;;;;;;;0.50;0.50;;;18.10;43.40;;;;;;4957588;29;20079;-74
2022/05/29 12:21:59;;;;;;;0.68;0.50;;;18.00;43.50;;;;;;4939573;29;20480;-73
2022/05/29 12:24:28;;;;;;;0.45;0.45;;;18.00;44.00;;;;;;4957062;29;20079;-73
2022/05/29 12:27:14;;;;;;;1.33;0.73;;;18.00;44.10;;;;;;4957107;29;20031;-75
2022/05/29 12:30:11;;;;;;;0.63;0.60;;;17.90;44.50;;;;;;4973146;28;20387;-72
2022/05/29 12:32:37;;;;;;;0.90;0.60;;;18.00;44.20;;;;;;4976268;28;20027;-74
2022/05/29 12:35:09;;;;;;;2.80;0.60;;;17.90;44.70;;;;;;4960040;28;20035;-74
2022/05/29 12:37:34;;;;;;;0.47;0.40;;;17.90;43.90;;;;;;4937464;29;20488;-74
2022/05/29 12:40:25;;;;;;;0.70;0.70;;;17.70;44.20;;;;;;4937276;29;20035;-73
2022/05/29 12:43:12;;;;;;;0.50;0.40;;;17.70;44.30;;;;;;4937462;29;20485;-74
2022/05/29 12:45:50;;;;;;;0.70;0.38;;;17.70;44.60;;;;;;4899804;29;20127;-73
2022/05/29 12:48:33;;;;;;;1.63;0.50;;;17.60;44.60;;;;;;4899832;29;20028;-73
2022/05/29 12:51:17;;;;;;;1.83;0.45;;;17.60;48.60;;;;;;4922043;29;20032;-74
2022/05/29 12:53:55;;;;;;;0.60;0.52;;;17.60;51.30;;;;;;4936116;29;20035;-74
2022/05/29 12:56:39;;;;;;;0.57;0.57;;;17.50;51.60;;;;;;4937342;29;20024;-73
2022/05/29 12:59:20;;;;;;;1.38;0.73;;;17.40;53.00;;;;;;4937168;29;20027;-74
2022/05/29 13:02:07;;;;;;;0.98;0.80;;;17.40;53.90;;;;;;4937817;29;20023;-73
2022/05/29 13:04:40;;;;;;;0.70;0.60;;;17.40;54.30;;;;;;4937600;29;20046;-73
2022/05/29 13:07:12;;;;;;;0.75;0.50;;;17.40;54.00;;;;;;4937139;29;20035;-73
2022/05/29 13:10:31;;;;;;;1.65;0.80;;;17.40;53.40;;;;;;4937601;29;20058;-74
2022/05/29 13:13:16;;;;;;;1.27;0.80;;;17.40;53.60;;;;;;4877709;29;20401;-74
2022/05/29 13:15:42;;;;;;;1.42;1.00;;;17.40;54.00;;;;;;4878315;29;20112;-74
2022/05/29 13:21:16;;;;;;;0.68;0.60;;;17.50;53.90;;;;;;4877657;29;20036;-74
2022/05/29 13:23:48;;;;;;;1.08;0.80;;;17.50;54.10;;;;;;4877930;29;20097;-73
2022/05/29 13:26:34;;;;;;;0.80;0.70;;;17.50;55.00;;;;;;4877663;29;20072;-73
2022/05/29 13:29:09;;;;;;;0.93;0.73;;;17.50;54.80;;;;;;4871039;29;20128;-74
2022/05/29 13:32:12;;;;;;;0.90;0.80;;;17.50;55.10;;;;;;4877923;29;20045;-74
2022/05/29 13:34:48;;;;;;;0.60;0.60;;;17.40;55.70;;;;;;4877936;29;20555;-74
2022/05/29 13:37:32;;;;;;;0.70;0.60;;;17.40;56.20;;;;;;4877277;29;20152;-73
2022/05/29 13:40:08;;;;;;;0.70;0.45;;;17.40;55.80;;;;;;4877612;29;20144;-74
2022/05/29 13:42:36;;;;;;;1.00;0.80;;;17.50;56.60;;;;;;4879314;29;20108;-73
2022/05/29 13:45:24;;;;;;;2.28;0.68;;;17.50;57.40;;;;;;4967768;28;20047;-73
2022/05/29 13:48:04;;;;;;;1.15;0.82;;;17.50;58.60;;;;;;4958444;28;20125;-74
2022/05/29 13:50:45;;;;;;;1.83;0.85;;;17.40;60.00;;;;;;4955512;29;20031;-74
2022/05/29 13:53:26;;;;;;;1.30;0.70;;;17.40;59.40;;;;;;4955151;29;20393;-74
2022/05/29 13:56:03;;;;;;;1.80;0.60;;;17.40;57.60;;;;;;4955565;29;20027;-74
2022/05/29 14:04:54;;;;;;;0.80;0.70;;;17.30;58.20;;;;;;4954247;29;20506;-73
2022/05/29 14:07:33;;;;;;;0.80;0.63;;;17.10;59.50;;;;;;4955102;29;20106;-72